sensor_id;sensor_type;location;lat;lon;timestamp;pressure;altitude;pressure_sealevel;temperature;humidity
36828;BME280;22766;48.042;11.192;2023-04-01T00:01:22;93846.44;;;5.38;100.00
36828;BME280;22766;48.042;11.192;2023-04-01T00:03:49;93848.38;;;5.19;100.00
36828;BME280;22766;48.042;11.192;2023-04-01T00:06:18;93850.34;;;5.07;100.00
36828;BME280;22766;48.042;11.192;2023-04-01T00:08:46;93832.44;;;5.07;100.00
36828;BME280;22766;48.042;11.192;2023-04-01T00:11:13;93831.06;;;4.95;100.00
36828;BME280;22766;48.042;11.192;2023-04-01T00:13:41;93829.59;;;5.10;100.00
36828;BME280;22766;48.042;11.192;2023-04-01T00:16:08;93828.88;;;5.00;100.00
36828;BME280;22766;48.042;11.192;2023-04-01T00:18:47;93824.91;;;5.06;100.00
36828;BME280;22766;48.042;11.192;2023-04-01T00:21:14;93823.97;;;5.07;100.00
36828;BME280;22766;48.042;11.192;2023-04-01T00:23:41;93820.91;;;5.03;100.00
36828;BME280;22766;48.042;11.192;2023-04-01T00:26:08;93825.16;;;5.12;100.00
36828;BME280;22766;48.042;11.192;2023-04-01T00:28:37;93832.00;;;5.12;100.00
36828;BME280;22766;48.042;11.192;2023-04-01T00:31:08;93827.31;;;5.25;100.00
36828;BME280;22766;48.042;11.192;2023-04-01T00:33:35;93829.88;;;5.25;100.00
36828;BME280;22766;48.042;11.192;2023-04-01T00:36:16;93826.50;;;5.24;100.00
36828;BME280;22766;48.042;11.192;2023-04-01T00:38:44;93827.94;;;5.44;100.00
36828;BME280;22766;48.042;11.192;2023-04-01T00:41:12;93828.44;;;5.48;100.00
36828;BME280;22766;48.042;11.192;2023-04-01T00:43:46;93828.03;;;5.60;100.00
36828;BME280;22766;48.042;11.192;2023-04-01T00:46:12;93825.69;;;5.67;100.00
36828;BME280;22766;48.042;11.192;2023-04-01T00:48:43;93823.94;;;5.67;100.00
36828;BME280;22766;48.042;11.192;2023-04-01T00:51:16;93827.94;;;5.70;100.00
36828;BME280;22766;48.042;11.192;2023-04-01T00:53:46;93827.03;;;5.79;100.00
36828;BME280;22766;48.042;11.192;2023-04-01T00:56:27;93835.28;;;5.91;100.00
36828;BME280;22766;48.042;11.192;2023-04-01T00:59:27;93832.22;;;5.87;100.00
36828;BME280;22766;48.042;11.192;2023-04-01T01:01:56;93835.47;;;5.97;100.00
36828;BME280;22766;48.042;11.192;2023-04-01T01:12:11;93827.28;;;6.27;100.00
36828;BME280;22766;48.042;11.192;2023-04-01T01:20:33;93818.38;;;6.47;100.00
36828;BME280;22766;48.042;11.192;2023-04-01T01:25:42;93828.47;;;6.49;100.00
36828;BME280;22766;48.042;11.192;2023-04-01T01:28:41;93842.09;;;6.57;100.00
36828;BME280;22766;48.042;11.192;2023-04-01T01:31:24;93830.22;;;6.48;100.00
36828;BME280;22766;48.042;11.192;2023-04-01T01:34:13;93819.19;;;6.56;100.00
36828;BME280;22766;48.042;11.192;2023-04-01T01:36:44;93818.91;;;6.59;100.00
36828;BME280;22766;48.042;11.192;2023-04-01T01:39:13;93824.50;;;6.63;100.00
36828;BME280;22766;48.042;11.192;2023-04-01T01:41:42;93822.41;;;6.58;100.00
36828;BME280;22766;48.042;11.192;2023-04-01T01:44:13;93821.44;;;6.51;100.00
36828;BME280;22766;48.042;11.192;2023-04-01T01:46:42;93813.06;;;6.41;100.00
36828;BME280;22766;48.042;11.192;2023-04-01T01:49:11;93819.19;;;6.56;100.00
36828;BME280;22766;48.042;11.192;2023-04-01T01:51:39;93813.94;;;6.66;100.00
36828;BME280;22766;48.042;11.192;2023-04-01T01:54:16;93816.31;;;6.67;100.00
36828;BME280;22766;48.042;11.192;2023-04-01T01:56:46;93825.94;;;6.65;100.00
36828;BME280;22766;48.042;11.192;2023-04-01T01:59:16;93822.69;;;6.47;100.00
36828;BME280;22766;48.042;11.192;2023-04-01T02:01:48;93822.72;;;6.55;100.00
36828;BME280;22766;48.042;11.192;2023-04-01T02:04:17;93814.69;;;6.50;100.00
36828;BME280;22766;48.042;11.192;2023-04-01T02:06:50;93810.03;;;6.53;100.00
36828;BME280;22766;48.042;11.192;2023-04-01T02:09:19;93825.28;;;6.55;100.00
36828;BME280;22766;48.042;11.192;2023-04-01T02:11:52;93811.00;;;6.44;100.00
36828;BME280;22766;48.042;11.192;2023-04-01T02:14:25;93817.72;;;6.53;100.00
36828;BME280;22766;48.042;11.192;2023-04-01T02:16:59;93824.66;;;6.53;100.00
36828;BME280;22766;48.042;11.192;2023-04-01T02:19:35;93840.28;;;6.34;100.00
36828;BME280;22766;48.042;11.192;2023-04-01T02:22:06;93833.59;;;6.49;100.00
36828;BME280;22766;48.042;11.192;2023-04-01T02:24:35;93829.91;;;6.43;100.00
36828;BME280;22766;48.042;11.192;2023-04-01T02:27:04;93828.28;;;6.34;100.00
36828;BME280;22766;48.042;11.192;2023-04-01T02:29:31;93833.91;;;6.38;100.00
36828;BME280;22766;48.042;11.192;2023-04-01T02:31:58;93842.50;;;6.29;100.00
36828;BME280;22766;48.042;11.192;2023-04-01T02:34:26;93850.88;;;6.39;100.00
36828;BME280;22766;48.042;11.192;2023-04-01T02:36:55;93834.84;;;6.37;100.00
36828;BME280;22766;48.042;11.192;2023-04-01T02:39:23;93842.69;;;6.35;100.00
36828;BME280;22766;48.042;11.192;2023-04-01T02:41:52;93833.03;;;6.29;100.00
36828;BME280;22766;48.042;11.192;2023-04-01T02:44:19;93841.78;;;6.52;100.00
36828;BME280;22766;48.042;11.192;2023-04-01T02:46:46;93848.91;;;6.33;100.00
36828;BME280;22766;48.042;11.192;2023-04-01T02:49:12;93840.44;;;6.40;100.00
36828;BME280;22766;48.042;11.192;2023-04-01T02:51:39;93847.97;;;6.34;100.00
36828;BME280;22766;48.042;11.192;2023-04-01T02:54:06;93846.34;;;6.25;100.00
36828;BME280;22766;48.042;11.192;2023-04-01T02:56:33;93843.94;;;6.31;100.00
36828;BME280;22766;48.042;11.192;2023-04-01T02:58:59;93847.78;;;6.27;100.00
36828;BME280;22766;48.042;11.192;2023-04-01T03:01:26;93853.72;;;6.28;100.00
36828;BME280;22766;48.042;11.192;2023-04-01T03:03:53;93843.75;;;6.17;100.00
36828;BME280;22766;48.042;11.192;2023-04-01T03:06:19;93846.94;;;6.19;100.00
36828;BME280;22766;48.042;11.192;2023-04-01T03:08:46;93840.69;;;6.13;100.00
36828;BME280;22766;48.042;11.192;2023-04-01T03:11:13;93840.53;;;6.15;100.00
36828;BME280;22766;48.042;11.192;2023-04-01T03:13:40;93840.69;;;6.13;100.00
36828;BME280;22766;48.042;11.192;2023-04-01T03:16:08;93837.97;;;6.15;100.00
36828;BME280;22766;48.042;11.192;2023-04-01T03:18:35;93838.09;;;6.05;100.00
36828;BME280;22766;48.042;11.192;2023-04-01T03:23:41;93846.47;;;5.90;100.00
36828;BME280;22766;48.042;11.192;2023-04-01T03:26:07;93852.56;;;5.89;100.00
36828;BME280;22766;48.042;11.192;2023-04-01T03:28:34;93849.28;;;5.79;100.00
36828;BME280;22766;48.042;11.192;2023-04-01T03:31:02;93860.09;;;5.90;100.00
36828;BME280;22766;48.042;11.192;2023-04-01T03:33:36;93856.13;;;5.96;100.00
36828;BME280;22766;48.042;11.192;2023-04-01T03:36:03;93853.63;;;6.04;100.00
36828;BME280;22766;48.042;11.192;2023-04-01T03:38:34;93857.72;;;5.97;100.00
36828;BME280;22766;48.042;11.192;2023-04-01T03:41:01;93854.47;;;5.87;100.00
36828;BME280;22766;48.042;11.192;2023-04-01T03:43:28;93852.25;;;5.92;100.00
36828;BME280;22766;48.042;11.192;2023-04-01T03:45:55;93852.56;;;5.89;100.00
36828;BME280;22766;48.042;11.192;2023-04-01T03:48:25;93859.78;;;5.93;100.00
36828;BME280;22766;48.042;11.192;2023-04-01T03:50:52;93856.97;;;6.04;100.00
36828;BME280;22766;48.042;11.192;2023-04-01T03:53:19;93856.34;;;6.10;100.00
36828;BME280;22766;48.042;11.192;2023-04-01T03:55:46;93846.78;;;6.20;100.00
36828;BME280;22766;48.042;11.192;2023-04-01T03:58:14;93851.59;;;6.15;100.00
36828;BME280;22766;48.042;11.192;2023-04-01T04:00:41;93856.41;;;6.18;100.00
36828;BME280;22766;48.042;11.192;2023-04-01T04:03:09;93851.06;;;6.04;100.00
36828;BME280;22766;48.042;11.192;2023-04-01T04:05:36;93851.06;;;6.12;100.00
36828;BME280;22766;48.042;11.192;2023-04-01T04:08:03;93852.28;;;6.33;100.00
36828;BME280;22766;48.042;11.192;2023-04-01T04:10:30;93866.75;;;6.09;100.00
36828;BME280;22766;48.042;11.192;2023-04-01T04:12:57;93862.78;;;6.14;100.00
36828;BME280;22766;48.042;11.192;2023-04-01T04:15:27;93865.06;;;6.25;100.00
36828;BME280;22766;48.042;11.192;2023-04-01T04:17:53;93863.00;;;6.29;100.00
36828;BME280;22766;48.042;11.192;2023-04-01T04:20:20;93864.91;;;6.27;100.00
36828;BME280;22766;48.042;11.192;2023-04-01T04:22:47;93863.16;;;6.27;100.00
36828;BME280;22766;48.042;11.192;2023-04-01T04:25:14;93874.75;;;6.39;100.00
36828;BME280;22766;48.042;11.192;2023-04-01T04:27:41;93875.47;;;6.24;100.00
36828;BME280;22766;48.042;11.192;2023-04-01T04:30:11;93876.69;;;6.12;100.00
36828;BME280;22766;48.042;11.192;2023-04-01T04:32:37;93873.03;;;6.14;100.00
36828;BME280;22766;48.042;11.192;2023-04-01T04:35:04;93873.72;;;6.24;100.00
36828;BME280;22766;48.042;11.192;2023-04-01T04:37:33;93881.06;;;6.53;100.00
36828;BME280;22766;48.042;11.192;2023-04-01T04:40:00;93880.16;;;6.36;100.00
36828;BME280;22766;48.042;11.192;2023-04-01T04:42:27;93872.22;;;6.47;100.00
36828;BME280;22766;48.042;11.192;2023-04-01T04:44:59;93872.28;;;6.72;100.00
36828;BME280;22766;48.042;11.192;2023-04-01T04:47:26;93875.31;;;6.67;100.00
36828;BME280;22766;48.042;11.192;2023-04-01T04:49:53;93874.34;;;6.60;100.00
36828;BME280;22766;48.042;11.192;2023-04-01T04:52:20;93883.34;;;6.72;100.00
36828;BME280;22766;48.042;11.192;2023-04-01T04:54:46;93871.63;;;6.61;100.00
36828;BME280;22766;48.042;11.192;2023-04-01T04:57:13;93893.75;;;6.63;100.00
36828;BME280;22766;48.042;11.192;2023-04-01T04:59:47;93890.41;;;6.70;100.00
36828;BME280;22766;48.042;11.192;2023-04-01T05:02:24;93895.19;;;6.65;100.00
36828;BME280;22766;48.042;11.192;2023-04-01T05:04:51;93887.84;;;6.78;100.00
36828;BME280;22766;48.042;11.192;2023-04-01T05:07:18;93879.53;;;6.76;100.00
36828;BME280;22766;48.042;11.192;2023-04-01T05:09:45;93889.63;;;6.78;100.00
36828;BME280;22766;48.042;11.192;2023-04-01T05:12:13;93893.31;;;6.83;100.00
36828;BME280;22766;48.042;11.192;2023-04-01T05:15:00;93896.16;;;6.64;100.00
36828;BME280;22766;48.042;11.192;2023-04-01T05:17:27;93882.53;;;6.63;100.00
36828;BME280;22766;48.042;11.192;2023-04-01T05:19:53;93884.41;;;6.53;100.00
36828;BME280;22766;48.042;11.192;2023-04-01T05:22:20;93883.97;;;6.66;100.00
36828;BME280;22766;48.042;11.192;2023-04-01T05:24:47;93874.00;;;6.63;100.00
36828;BME280;22766;48.042;11.192;2023-04-01T05:27:14;93879.38;;;6.78;100.00
36828;BME280;22766;48.042;11.192;2023-04-01T05:29:41;93878.91;;;6.40;100.00
36828;BME280;22766;48.042;11.192;2023-04-01T05:32:23;93869.94;;;6.44;100.00
36828;BME280;22766;48.042;11.192;2023-04-01T05:34:51;93882.81;;;6.52;100.00
36828;BME280;22766;48.042;11.192;2023-04-01T05:37:18;93881.97;;;6.44;100.00
36828;BME280;22766;48.042;11.192;2023-04-01T05:39:45;93868.19;;;6.45;100.00
36828;BME280;22766;48.042;11.192;2023-04-01T05:42:12;93880.44;;;6.59;100.00
36828;BME280;22766;48.042;11.192;2023-04-01T05:44:40;93878.19;;;6.64;100.00
36828;BME280;22766;48.042;11.192;2023-04-01T05:47:06;93879.19;;;6.79;100.00
36828;BME280;22766;48.042;11.192;2023-04-01T05:49:33;93891.22;;;6.79;100.00
36828;BME280;22766;48.042;11.192;2023-04-01T05:52:01;93879.41;;;6.86;100.00
36828;BME280;22766;48.042;11.192;2023-04-01T05:54:29;93872.63;;;6.85;100.00
36828;BME280;22766;48.042;11.192;2023-04-01T05:56:56;93874.09;;;6.95;100.00
36828;BME280;22766;48.042;11.192;2023-04-01T05:59:22;93880.69;;;6.98;100.00
36828;BME280;22766;48.042;11.192;2023-04-01T06:01:49;93882.41;;;6.81;100.00
36828;BME280;22766;48.042;11.192;2023-04-01T06:04:17;93865.75;;;6.85;100.00
36828;BME280;22766;48.042;11.192;2023-04-01T06:06:45;93877.31;;;6.97;100.00
36828;BME280;22766;48.042;11.192;2023-04-01T06:09:18;93870.91;;;7.09;100.00
36828;BME280;22766;48.042;11.192;2023-04-01T06:20:47;93867.56;;;7.17;100.00
36828;BME280;22766;48.042;11.192;2023-04-01T06:23:36;93863.56;;;7.30;100.00
36828;BME280;22766;48.042;11.192;2023-04-01T06:26:34;93859.53;;;7.60;100.00
36828;BME280;22766;48.042;11.192;2023-04-01T06:46:59;93878.19;;;7.54;100.00
36828;BME280;22766;48.042;11.192;2023-04-01T06:56:08;93881.84;;;7.68;100.00
36828;BME280;22766;48.042;11.192;2023-04-01T07:01:41;93880.56;;;7.39;100.00
36828;BME280;22766;48.042;11.192;2023-04-01T07:04:16;93873.53;;;7.57;100.00
36828;BME280;22766;48.042;11.192;2023-04-01T07:07:01;93881.06;;;7.51;100.00
36828;BME280;22766;48.042;11.192;2023-04-01T07:09:34;93887.78;;;7.60;100.00
36828;BME280;22766;48.042;11.192;2023-04-01T07:15:34;93883.63;;;7.59;100.00
36828;BME280;22766;48.042;11.192;2023-04-01T07:20:37;93884.09;;;7.79;100.00
36828;BME280;22766;48.042;11.192;2023-04-01T07:23:28;93877.47;;;8.00;100.00
36828;BME280;22766;48.042;11.192;2023-04-01T07:26:23;93873.75;;;8.11;100.00
36828;BME280;22766;48.042;11.192;2023-04-01T07:29:12;93872.28;;;8.24;100.00
36828;BME280;22766;48.042;11.192;2023-04-01T07:34:46;93878.22;;;8.25;100.00
36828;BME280;22766;48.042;11.192;2023-04-01T07:37:41;93877.94;;;8.28;100.00
36828;BME280;22766;48.042;11.192;2023-04-01T07:48:39;93902.44;;;8.55;100.00
36828;BME280;22766;48.042;11.192;2023-04-01T07:53:52;93899.91;;;8.38;100.00
36828;BME280;22766;48.042;11.192;2023-04-01T08:05:26;93906.13;;;8.52;100.00
36828;BME280;22766;48.042;11.192;2023-04-01T08:22:34;93894.91;;;9.06;93.10
36828;BME280;22766;48.042;11.192;2023-04-01T08:25:11;93898.94;;;9.09;94.19
36828;BME280;22766;48.042;11.192;2023-04-01T08:28:08;93894.63;;;9.01;96.29
36828;BME280;22766;48.042;11.192;2023-04-01T08:33:29;93895.06;;;9.13;96.17
36828;BME280;22766;48.042;11.192;2023-04-01T08:36:12;93893.75;;;9.17;92.83
36828;BME280;22766;48.042;11.192;2023-04-01T08:38:49;93920.00;;;9.12;91.63
36828;BME280;22766;48.042;11.192;2023-04-01T09:02:36;93890.03;;;10.02;88.05
36828;BME280;22766;48.042;11.192;2023-04-01T09:18:40;93887.13;;;9.82;82.31
36828;BME280;22766;48.042;11.192;2023-04-01T09:47:01;93857.38;;;10.82;76.85
36828;BME280;22766;48.042;11.192;2023-04-01T09:52:10;93853.47;;;10.86;78.32
36828;BME280;22766;48.042;11.192;2023-04-01T10:03:32;93847.03;;;10.31;76.79
36828;BME280;22766;48.042;11.192;2023-04-01T10:06:45;93859.66;;;10.12;75.10
36828;BME280;22766;48.042;11.192;2023-04-01T10:11:59;93866.50;;;10.49;79.25
36828;BME280;22766;48.042;11.192;2023-04-01T10:20:33;93857.25;;;10.54;79.21
36828;BME280;22766;48.042;11.192;2023-04-01T10:23:20;93841.59;;;10.56;76.49
36828;BME280;22766;48.042;11.192;2023-04-01T10:32:09;93867.69;;;10.09;83.72
36828;BME280;22766;48.042;11.192;2023-04-01T10:49:23;93878.59;;;9.22;100.00
36828;BME280;22766;48.042;11.192;2023-04-01T10:52:20;93881.72;;;8.79;100.00
36828;BME280;22766;48.042;11.192;2023-04-01T11:05:50;93868.66;;;9.56;100.00
36828;BME280;22766;48.042;11.192;2023-04-01T11:33:38;93906.19;;;8.12;100.00
36828;BME280;22766;48.042;11.192;2023-04-01T11:36:23;93911.69;;;7.93;100.00
36828;BME280;22766;48.042;11.192;2023-04-01T11:38:58;93918.94;;;7.49;100.00
36828;BME280;22766;48.042;11.192;2023-04-01T11:42:03;93918.44;;;7.37;100.00
36828;BME280;22766;48.042;11.192;2023-04-01T12:04:30;93907.31;;;7.05;100.00
36828;BME280;22766;48.042;11.192;2023-04-01T12:17:53;93908.31;;;7.12;100.00
36828;BME280;22766;48.042;11.192;2023-04-01T12:20:29;93907.63;;;7.02;100.00
36828;BME280;22766;48.042;11.192;2023-04-01T12:23:12;93899.00;;;7.03;100.00
36828;BME280;22766;48.042;11.192;2023-04-01T12:28:46;93895.31;;;7.13;100.00
36828;BME280;22766;48.042;11.192;2023-04-01T12:31:29;93895.00;;;7.24;100.00
36828;BME280;22766;48.042;11.192;2023-04-01T12:37:08;93903.81;;;7.30;100.00
36828;BME280;22766;48.042;11.192;2023-04-01T12:46:03;93907.69;;;7.34;100.00
36828;BME280;22766;48.042;11.192;2023-04-01T12:57:13;93918.91;;;7.41;100.00
36828;BME280;22766;48.042;11.192;2023-04-01T13:00:03;93914.91;;;7.38;100.00
36828;BME280;22766;48.042;11.192;2023-04-01T13:06:20;93917.63;;;7.45;100.00
36828;BME280;22766;48.042;11.192;2023-04-01T13:25:53;93941.53;;;7.21;100.00
36828;BME280;22766;48.042;11.192;2023-04-01T13:28:59;93942.44;;;6.96;100.00
36828;BME280;22766;48.042;11.192;2023-04-01T13:40:11;93931.22;;;7.05;100.00
36828;BME280;22766;48.042;11.192;2023-04-01T13:43:11;93943.88;;;7.07;100.00
36828;BME280;22766;48.042;11.192;2023-04-01T13:48:45;93932.69;;;7.08;100.00
36828;BME280;22766;48.042;11.192;2023-04-01T13:59:39;93934.34;;;7.33;100.00
36828;BME280;22766;48.042;11.192;2023-04-01T14:19:41;93938.38;;;7.76;100.00
36828;BME280;22766;48.042;11.192;2023-04-01T14:40:21;93940.59;;;7.87;100.00
36828;BME280;22766;48.042;11.192;2023-04-01T14:43:06;93944.16;;;7.86;100.00
36828;BME280;22766;48.042;11.192;2023-04-01T14:54:02;93933.59;;;8.60;100.00
36828;BME280;22766;48.042;11.192;2023-04-01T14:56:44;93950.97;;;8.58;100.00
36828;BME280;22766;48.042;11.192;2023-04-01T14:59:33;93950.44;;;8.70;100.00
36828;BME280;22766;48.042;11.192;2023-04-01T15:07:53;93948.09;;;8.91;100.00
36828;BME280;22766;48.042;11.192;2023-04-01T15:10:46;93953.81;;;9.09;100.00
36828;BME280;22766;48.042;11.192;2023-04-01T15:40:20;93966.41;;;9.80;100.00
36828;BME280;22766;48.042;11.192;2023-04-01T15:45:58;93969.28;;;9.63;100.00
36828;BME280;22766;48.042;11.192;2023-04-01T15:48:31;93972.16;;;9.68;100.00
36828;BME280;22766;48.042;11.192;2023-04-01T15:53:49;93983.56;;;9.42;100.00
36828;BME280;22766;48.042;11.192;2023-04-01T16:15:42;93980.47;;;8.86;100.00
36828;BME280;22766;48.042;11.192;2023-04-01T16:21:00;93975.56;;;8.52;100.00
36828;BME280;22766;48.042;11.192;2023-04-01T16:23:47;93974.91;;;8.66;100.00
36828;BME280;22766;48.042;11.192;2023-04-01T16:26:22;93983.41;;;8.67;100.00
36828;BME280;22766;48.042;11.192;2023-04-01T16:29:12;93987.63;;;8.60;100.00
36828;BME280;22766;48.042;11.192;2023-04-01T16:31:48;93966.97;;;8.76;100.00
36828;BME280;22766;48.042;11.192;2023-04-01T16:37:13;93981.38;;;8.54;100.00
36828;BME280;22766;48.042;11.192;2023-04-01T16:45:16;93995.19;;;8.53;100.00
36828;BME280;22766;48.042;11.192;2023-04-01T16:47:52;93996.16;;;8.44;100.00
36828;BME280;22766;48.042;11.192;2023-04-01T16:50:22;93986.69;;;8.28;100.00
36828;BME280;22766;48.042;11.192;2023-04-01T16:53:09;93992.66;;;8.37;100.00
36828;BME280;22766;48.042;11.192;2023-04-01T16:55:50;93990.69;;;8.23;100.00
36828;BME280;22766;48.042;11.192;2023-04-01T16:58:24;93984.00;;;8.30;100.00
36828;BME280;22766;48.042;11.192;2023-04-01T17:01:04;93981.88;;;8.33;100.00
36828;BME280;22766;48.042;11.192;2023-04-01T17:03:41;93981.22;;;8.23;100.00
36828;BME280;22766;48.042;11.192;2023-04-01T17:09:25;93983.94;;;8.38;99.80
36828;BME280;22766;48.042;11.192;2023-04-01T17:14:58;93988.97;;;8.31;100.00
36828;BME280;22766;48.042;11.192;2023-04-01T17:23:01;93995.84;;;8.23;100.00
36828;BME280;22766;48.042;11.192;2023-04-01T17:25:42;93992.19;;;8.25;100.00
36828;BME280;22766;48.042;11.192;2023-04-01T17:31:34;93995.22;;;8.37;100.00
36828;BME280;22766;48.042;11.192;2023-04-01T17:36:57;94009.84;;;8.04;100.00
36828;BME280;22766;48.042;11.192;2023-04-01T17:42:16;94017.06;;;8.01;100.00
36828;BME280;22766;48.042;11.192;2023-04-01T17:58:43;94031.69;;;7.84;100.00
36828;BME280;22766;48.042;11.192;2023-04-01T18:07:33;94045.63;;;7.82;100.00
36828;BME280;22766;48.042;11.192;2023-04-01T18:18:50;94058.94;;;7.77;100.00
36828;BME280;22766;48.042;11.192;2023-04-01T18:23:58;94057.78;;;7.55;100.00
36828;BME280;22766;48.042;11.192;2023-04-01T18:26:32;94069.34;;;7.51;100.00
36828;BME280;22766;48.042;11.192;2023-04-01T18:29:03;94062.75;;;7.49;100.00
36828;BME280;22766;48.042;11.192;2023-04-01T18:31:41;94073.50;;;7.44;100.00
36828;BME280;22766;48.042;11.192;2023-04-01T18:37:17;94069.59;;;7.32;100.00
36828;BME280;22766;48.042;11.192;2023-04-01T18:39:52;94080.16;;;7.21;100.00
36828;BME280;22766;48.042;11.192;2023-04-01T18:50:39;94081.97;;;7.03;100.00
36828;BME280;22766;48.042;11.192;2023-04-01T18:56:05;94065.13;;;7.01;100.00
36828;BME280;22766;48.042;11.192;2023-04-01T19:06:51;94072.19;;;6.99;100.00
36828;BME280;22766;48.042;11.192;2023-04-01T19:12:12;94075.25;;;6.77;100.00
36828;BME280;22766;48.042;11.192;2023-04-01T19:15:02;94083.34;;;6.90;100.00
36828;BME280;22766;48.042;11.192;2023-04-01T19:28:16;94095.63;;;6.78;100.00
36828;BME280;22766;48.042;11.192;2023-04-01T19:30:59;94114.84;;;6.74;100.00
36828;BME280;22766;48.042;11.192;2023-04-01T19:36:23;94111.50;;;6.56;100.00
36828;BME280;22766;48.042;11.192;2023-04-01T19:47:13;94109.53;;;6.50;100.00
36828;BME280;22766;48.042;11.192;2023-04-01T19:52:52;94115.00;;;6.29;100.00
36828;BME280;22766;48.042;11.192;2023-04-01T20:00:25;94120.59;;;6.25;100.00
36828;BME280;22766;48.042;11.192;2023-04-01T20:05:36;94122.41;;;5.97;100.00
36828;BME280;22766;48.042;11.192;2023-04-01T20:11:01;94124.63;;;5.83;100.00
36828;BME280;22766;48.042;11.192;2023-04-01T20:16:07;94140.84;;;5.83;100.00
36828;BME280;22766;48.042;11.192;2023-04-01T20:18:45;94133.81;;;5.76;100.00
36828;BME280;22766;48.042;11.192;2023-04-01T20:24:04;94129.41;;;5.68;100.00
36828;BME280;22766;48.042;11.192;2023-04-01T20:26:36;94140.00;;;5.83;100.00
36828;BME280;22766;48.042;11.192;2023-04-01T20:29:18;94136.53;;;5.74;100.00
36828;BME280;22766;48.042;11.192;2023-04-01T20:40:38;94136.38;;;5.76;100.00
36828;BME280;22766;48.042;11.192;2023-04-01T20:49:01;94138.53;;;5.80;100.00
36828;BME280;22766;48.042;11.192;2023-04-01T20:51:45;94146.22;;;5.80;100.00
36828;BME280;22766;48.042;11.192;2023-04-01T20:57:45;94149.69;;;5.89;100.00
36828;BME280;22766;48.042;11.192;2023-04-01T21:11:27;94152.31;;;5.97;100.00
36828;BME280;22766;48.042;11.192;2023-04-01T21:16:45;94169.75;;;5.93;100.00
36828;BME280;22766;48.042;11.192;2023-04-01T21:33:25;94189.16;;;5.96;100.00
36828;BME280;22766;48.042;11.192;2023-04-01T22:05:46;94205.38;;;6.31;100.00
36828;BME280;22766;48.042;11.192;2023-04-01T22:11:23;94202.06;;;6.56;100.00
36828;BME280;22766;48.042;11.192;2023-04-01T22:20:20;94204.50;;;6.58;100.00
36828;BME280;22766;48.042;11.192;2023-04-01T22:26:04;94201.19;;;6.66;100.00
36828;BME280;22766;48.042;11.192;2023-04-01T22:28:37;94203.31;;;6.70;100.00
36828;BME280;22766;48.042;11.192;2023-04-01T22:31:09;94204.19;;;6.61;100.00
36828;BME280;22766;48.042;11.192;2023-04-01T22:50:12;94206.97;;;6.68;100.00
36828;BME280;22766;48.042;11.192;2023-04-01T22:52:46;94207.72;;;6.78;100.00
36828;BME280;22766;48.042;11.192;2023-04-01T22:55:22;94209.63;;;7.01;100.00
36828;BME280;22766;48.042;11.192;2023-04-01T22:57:54;94216.16;;;6.70;100.00
36828;BME280;22766;48.042;11.192;2023-04-01T23:00:51;94211.59;;;6.82;100.00
36828;BME280;22766;48.042;11.192;2023-04-01T23:05:56;94205.06;;;6.70;100.00
36828;BME280;22766;48.042;11.192;2023-04-01T23:11:13;94217.75;;;6.53;100.00
36828;BME280;22766;48.042;11.192;2023-04-01T23:13:45;94219.38;;;6.54;100.00
36828;BME280;22766;48.042;11.192;2023-04-01T23:16:15;94222.88;;;6.71;100.00
36828;BME280;22766;48.042;11.192;2023-04-01T23:19:02;94219.06;;;6.75;100.00
36828;BME280;22766;48.042;11.192;2023-04-01T23:21:44;94229.47;;;6.56;100.00
36828;BME280;22766;48.042;11.192;2023-04-01T23:24:25;94231.38;;;6.54;100.00
36828;BME280;22766;48.042;11.192;2023-04-01T23:27:36;94234.16;;;6.43;100.00
36828;BME280;22766;48.042;11.192;2023-04-01T23:35:48;94235.25;;;6.58;100.00
36828;BME280;22766;48.042;11.192;2023-04-01T23:38:15;94245.59;;;6.48;100.00
36828;BME280;22766;48.042;11.192;2023-04-01T23:40:42;94246.81;;;6.44;100.00
36828;BME280;22766;48.042;11.192;2023-04-01T23:43:28;94248.22;;;6.39;100.00
36828;BME280;22766;48.042;11.192;2023-04-01T23:46:00;94239.31;;;6.60;100.00
36828;BME280;22766;48.042;11.192;2023-04-01T23:48:48;94240.47;;;6.48;100.00
36828;BME280;22766;48.042;11.192;2023-04-01T23:51:38;94236.88;;;6.59;100.00
36828;BME280;22766;48.042;11.192;2023-04-01T23:54:18;94252.06;;;6.70;100.00
36828;BME280;22766;48.042;11.192;2023-04-01T23:56:51;94248.38;;;6.55;100.00
36828;BME280;22766;48.042;11.192;2023-04-01T23:59:24;94254.97;;;6.57;100.00
